Wichita Mid Continent Airport
KICT : rendu visible

Aérodrome :











RETROUVEZ-NOUS SUR...

 
LOGIN :

S'inscrire | Disclaimer

   EN    FR    IT 

 









Légende :    VFR   VFR Marginal   IFR   IFR Intensif   IFR Très Intensif
Visi : 
Plafond : 
>= 8 km
>= 3000ft
5 à 8 km
1000 à 3000 ft
1500m à 5 km
500 à 1000 ft
800 à 1500m
200 à 500 ft
< 800m
< 200 ft
Symboles :   Orages  Brouillard  Fortes neiges  Fortes précipitations  Vent > 20 kt







- Altitude de l'aérodrome : 1333 ft
- Code IATA : ICT


KICT - Wichita Mid Continent

DERNIER METAR :
  • 261053Z 32007KT 10SM -RA FEW017 SCT060 BKN110 OVC180 21/20 A3007 RMK AO2 SLP168 P0003 T02110200 $

METARs EXPIRÉS :
  • 260953Z 30012KT 10SM -RA SCT065 BKN110 BKN140 OVC180 21/20 A3008 RMK AO2 SLP171 CB MOVD N P0000 T02110200 $
  • 260853Z 23009KT 10SM -RA SCT017 SCT080 BKN110 OVC140 22/19 A3008 RMK AO2 RAE0759B22 TSE15 SLP173 OCNL LTGICCC DSNT NW CB DSNT NW MOV NE P0000 60003 T02170194 53001 $

TAF KICT
Valide du 26 à 12h jusqu'au 27 à 12h UTC


261135Z 2612/2712 VRB06KT P6SM -RA SCT040 OVC080
TEMPO 2612/2614 5SM -RA BKN035
FM261400 13007KT P6SM OVC035
FM262000 18009KT P6SM OVC040
FM262300 16007KT P6SM SCT040 OVC120
FIR KZKC / Amérique du Nord



MET'MAP, la Météo Aéronautique d'un coup d'oeil ! - Copyright ORBIFLY Décembre 2007 - Disclaimer

ORBIFLY MET'MAP TEAM :

Programmation & Développement : Alexandra Zaïnal
Conception & Développement : Baudouin d'Aumeries
Co-Programmation & Développement : Marc-Olivier Méhu
Soutien technique & logistique : Manuel Goepfert

Contact : metmap@orbifly.com




SOURCES & CREDITS :

   NOAA       Earth
Advisory